Flight Track Log - Related Links

Times and Time Zones

All times are in EDT time to prevent confusion due to time zone crossing. See the CSC8759 flight status page for this flight to view local times or setup timezone preferences in your user account.

Time Position Orientation Groundspeed Altitude Reporting Facility
EDT Latitude Longitude Course Direction KTS MPH feet Rate Location/Type
Thu 01:08:00 AM 30.2012 106.1422 318° Northwest  Level Estimated
Thu 01:09:00 AM 30.2699 106.0705 318° Northwest  Level Estimated
Thu 01:10:00 AM 30.3386 105.9988 318° Northwest  Level Estimated
Thu 01:11:00 AM 30.4072 105.9269 318° Northwest  Level Estimated
Thu 01:12:00 AM 30.4757 105.8550 318° Northwest  Level Estimated
Thu 01:13:00 AM 30.5442 105.7829 318° Northwest  Level Estimated
Thu 01:14:00 AM 30.6127 105.7108 318° Northwest  Level Estimated
Thu 01:15:00 AM 30.6812 105.6385 318° Northwest  Level Estimated
Thu 01:16:00 AM 30.7496 105.5661 318° Northwest  Level Estimated
Thu 01:17:00 AM 30.8179 105.4937 318° Northwest  Level Estimated
Thu 01:18:00 AM 30.8863 105.4211 318° Northwest  Level Estimated
Thu 01:19:00 AM 30.9545 105.3484 318° Northwest  Level Estimated
Thu 01:20:00 AM 31.0228 105.2756 318° Northwest  Level Estimated
Thu 01:21:00 AM 31.0910 105.2028 318° Northwest  Level Estimated
Thu 01:22:00 AM 31.1592 105.1298 318° Northwest  Level Estimated
Thu 01:23:00 AM 31.2273 105.0567 317° Northwest  Level Estimated
Thu 01:24:00 AM 31.2954 104.9835 317° Northwest  Level Estimated
Thu 01:25:00 AM 31.3634 104.9102 317° Northwest  Level Estimated
Thu 01:26:00 AM 31.4314 104.8368 317° Northwest  Level Estimated
Thu 01:27:00 AM 31.4993 104.7633 317° Northwest  Level Estimated
Thu 01:28:00 AM 31.5672 104.6896 317° Northwest  Level Estimated
Thu 01:29:00 AM 31.6351 104.6159 317° Northwest  Level Estimated
Thu 01:30:00 AM 31.7029 104.5421 317° Northwest  Level Estimated
Thu 01:31:00 AM 31.7707 104.4681 317° Northwest  Level Estimated
Thu 01:32:00 AM 31.8385 104.3941 317° Northwest  Level Estimated
Thu 01:33:00 AM 31.9062 104.3199 317° Northwest  Level Estimated
Thu 01:34:00 AM 31.9738 104.2456 317° Northwest  Level Estimated
Thu 01:35:00 AM 32.0414 104.1712 317° Northwest  Level Estimated
Thu 01:36:00 AM 32.1090 104.0967 317° Northwest  Level Estimated
Thu 01:37:00 AM 32.1765 104.0221 317° Northwest  Level Estimated
Thu 01:38:00 AM 32.2440 103.9474 317° Northwest  Level Estimated
Thu 01:39:00 AM 32.3115 103.8726 317° Northwest  Level Estimated
Thu 01:40:00 AM 32.3788 103.7977 317° Northwest  Level Estimated
Thu 01:41:00 AM 32.4462 103.7226 317° Northwest  Level Estimated
Thu 01:42:00 AM 32.5135 103.6475 317° Northwest  Level Estimated
Thu 01:43:00 AM 32.5807 103.5722 317° Northwest  Level Estimated
Thu 01:44:00 AM 32.6480 103.4968 317° Northwest  Level Estimated
Thu 01:45:00 AM 32.7151 103.4213 317° Northwest  Level Estimated
Thu 01:46:00 AM 32.7823 103.3457 317° Northwest  Level Estimated
Thu 01:47:00 AM 32.8493 103.2700 317° Northwest  Level Estimated
Thu 01:48:00 AM 32.9164 103.1941 316° Northwest  Level Estimated
Thu 01:49:00 AM 32.9833 103.1182 316° Northwest  Level Estimated
Thu 01:50:00 AM 33.0503 103.0421 316° Northwest  Level Estimated
Thu 01:51:00 AM 33.1172 102.9659 316° Northwest  Level Estimated
Thu 01:52:00 AM 33.1840 102.8896 316° Northwest  Level Estimated
Thu 01:53:00 AM 33.2508 102.8132 316° Northwest  Level Estimated
Thu 01:54:00 AM 33.3176 102.7366 316° Northwest  Level Estimated
Thu 01:55:00 AM 33.3843 102.6600 316° Northwest  Level Estimated
Thu 01:56:00 AM 33.4510 102.5832 316° Northwest  Level Estimated
Thu 01:57:00 AM 33.5176 102.5063 316° Northwest  Level Estimated
Thu 01:58:00 AM 33.5841 102.4293 316° Northwest  Level Estimated
Thu 01:59:00 AM 33.6507 102.3522 316° Northwest  Level Estimated
Thu 02:00:00 AM 33.7171 102.2749 316° Northwest  Level Estimated
Thu 02:01:00 AM 33.7835 102.1976 316° Northwest  Level Estimated
Thu 02:02:00 AM 33.8499 102.1201 316° Northwest  Level Estimated
Thu 02:03:00 AM 33.9162 102.0425 316° Northwest  Level Estimated
Thu 02:04:00 AM 33.9825 101.9648 316° Northwest  Level Estimated
Thu 02:05:00 AM 34.0487 101.8869 316° Northwest  Level Estimated
Thu 02:06:00 AM 34.1149 101.8089 316° Northwest  Level Estimated
Thu 02:07:00 AM 34.1810 101.7309 316° Northwest  Level Estimated
Thu 02:08:00 AM 34.2471 101.6526 316° Northwest  Level Estimated
Thu 02:09:00 AM 34.3131 101.5743 316° Northwest  Level Estimated
Thu 02:10:00 AM 34.3791 101.4958 316° Northwest  Level Estimated
Thu 02:11:00 AM 34.4451 101.4173 316° Northwest  Level Estimated
Thu 02:12:00 AM 34.5109 101.3385 315° West  Level Estimated
Thu 02:13:00 AM 34.5768 101.2597 315° West  Level Estimated
Thu 02:14:00 AM 34.6425 101.1807 315° West  Level Estimated
Thu 02:15:00 AM 34.7083 101.1017 315° West  Level Estimated
Thu 02:16:00 AM 34.7739 101.0225 315° West  Level Estimated
Thu 02:17:00 AM 34.8396 100.9431 315° West  Level Estimated
Thu 02:18:00 AM 34.9051 100.8637 315° West  Level Estimated
Thu 02:19:00 AM 34.9707 100.7841 315° West  Level Estimated
Thu 02:20:00 AM 35.0361 100.7044 315° West  Level Estimated
Thu 02:21:00 AM 35.1016 100.6245 315° West  Level Estimated
Thu 02:22:00 AM 35.1669 100.5445 315° West  Level Estimated
Thu 02:23:00 AM 35.2322 100.4644 315° West  Level Estimated
Thu 02:24:00 AM 35.2975 100.3842 315° West  Level Estimated
Thu 02:25:00 AM 35.3627 100.3038 315° West  Level Estimated
Thu 02:26:00 AM 35.4278 100.2234 315° West  Level Estimated
Thu 02:27:00 AM 35.4929 100.1427 315° West  Level Estimated
Thu 02:28:00 AM 35.5580 100.0620 315° West  Level Estimated
Thu 02:29:00 AM 35.6230 99.9811 315° West  Level Estimated
Thu 02:30:00 AM 35.6879 99.9001 315° West  Level Estimated
Thu 02:31:00 AM 35.7528 99.8190 315° West  Level Estimated
Thu 02:32:00 AM 35.8176 99.7377 315° West  Level Estimated
Thu 02:33:00 AM 35.8824 99.6563 314° West  Level Estimated
Thu 02:34:00 AM 35.9471 99.5747 314° West  Level Estimated
Thu 02:35:00 AM 36.0118 99.4930 314° West  Level Estimated
Thu 02:36:00 AM 36.0764 99.4112 314° West  Level Estimated
Thu 02:37:00 AM 36.1409 99.3293 314° West  Level Estimated
Thu 02:38:00 AM 36.2054 99.2472 314° West  Level Estimated
Thu 02:39:00 AM 36.2699 99.1650 314° West  Level Estimated
Thu 02:40:00 AM 36.3342 99.0826 314° West  Level Estimated
Thu 02:41:00 AM 36.3986 99.0002 314° West  Level Estimated
Thu 02:42:00 AM 36.4628 98.9175 314° West  Level Estimated
Thu 02:43:00 AM 36.5271 98.8348 314° West  Level Estimated
Thu 02:44:00 AM 36.5912 98.7519 314° West  Level Estimated
Thu 02:45:00 AM 36.6553 98.6688 314° West  Level Estimated
Thu 02:46:00 AM 36.7193 98.5857 314° West  Level Estimated
Thu 02:47:00 AM 36.7833 98.5023 314° West  Level Estimated
Thu 02:48:00 AM 36.8473 98.4189 314° West  Level Estimated
Thu 02:49:00 AM 36.9111 98.3353 314° West  Level Estimated
Thu 02:50:00 AM 36.9749 98.2516 314° West  Level Estimated
Thu 02:51:00 AM 37.0387 98.1677 314° West  Level Estimated
Thu 02:52:00 AM 37.1023 98.0837 314° West  Level Estimated
Thu 02:53:00 AM 37.1660 97.9995 314° West  Level Estimated
Thu 02:54:00 AM 37.2295 97.9152 313° West  Level Estimated
Thu 02:55:00 AM 37.2931 97.8308 313° West  Level Estimated
Thu 02:56:00 AM 37.3565 97.7462 313° West  Level Estimated
Thu 02:57:00 AM 37.4199 97.6615 313° West  Level Estimated
Thu 02:58:00 AM 37.4832 97.5766 313° West  Level Estimated
Thu 02:59:00 AM 37.5465 97.4916 313° West  Level Estimated
Thu 03:00:00 AM 37.6097 97.4065 313° West  Level Estimated
Thu 03:01:00 AM 37.6729 97.3212 313° West  Level Estimated
Thu 03:02:00 AM 37.7359 97.2357 313° West  Level Estimated
Thu 03:03:00 AM 37.7990 97.1501 313° West  Level Estimated
Thu 03:04:00 AM 37.8619 97.0644 313° West  Level Estimated
Thu 03:05:00 AM 37.9248 96.9785 313° West  Level Estimated
Thu 03:06:00 AM 37.9877 96.8925 313° West  Level Estimated
Thu 03:07:00 AM 38.0504 96.8063 313° West  Level Estimated
Thu 03:08:00 AM 38.1131 96.7200 313° West  Level Estimated
Thu 03:09:00 AM 38.1758 96.6335 313° West  Level Estimated
Thu 03:10:00 AM 38.2384 96.5469 313° West  Level Estimated
Thu 03:11:00 AM 38.3009 96.4601 313° West  Level Estimated
Thu 03:12:00 AM 38.3633 96.3732 313° West  Level Estimated
Thu 03:13:00 AM 38.4257 96.2861 312° West  Level Estimated
Thu 03:14:00 AM 38.4880 96.1989 312° West  Level Estimated
Thu 03:15:00 AM 38.5503 96.1115 312° West  Level Estimated
Thu 03:16:00 AM 38.6125 96.0240 312° West  Level Estimated
Thu 03:17:00 AM 38.6746 95.9363 312° West  Level Estimated
Thu 03:18:00 AM 38.7367 95.8485 312° West  Level Estimated
Thu 03:19:00 AM 38.7987 95.7605 312° West  Level Estimated
Thu 03:20:00 AM 38.8606 95.6723 312° West  Level Estimated
Thu 03:21:00 AM 38.9225 95.5841 312° West  Level Estimated
Thu 03:22:00 AM 38.9843 95.4956 312° West  Level Estimated
Thu 03:23:00 AM 39.0460 95.4070 312° West  Level Estimated
Thu 03:24:00 AM 39.1077 95.3183 312° West  Level Estimated
Thu 03:25:00 AM 39.1693 95.2294 312° West  Level Estimated
Thu 03:26:00 AM 39.2308 95.1403 312° West  Level Estimated
Thu 03:27:00 AM 39.2923 95.0511 312° West  Level Estimated
Thu 03:28:00 AM 39.3537 94.9617 312° West  Level Estimated
Thu 03:29:00 AM 39.4150 94.8722 312° West  Level Estimated
Thu 03:30:00 AM 39.4763 94.7825 312° West  Level Estimated
Thu 03:31:00 AM 39.5375 94.6926 311° West  Level Estimated
Thu 03:32:00 AM 39.5986 94.6026 311° West  Level Estimated
Thu 03:33:00 AM 39.6596 94.5125 311° West  Level Estimated
Thu 03:34:00 AM 39.7206 94.4221 311° West  Level Estimated
Thu 03:35:00 AM 39.7815 94.3316 311° West  Level Estimated
Thu 03:36:00 AM 39.8424 94.2410 311° West  Level Estimated
Thu 03:37:00 AM 39.9031 94.1502 311° West  Level Estimated
Thu 03:38:00 AM 39.9638 94.0592 311° West  Level Estimated
Thu 03:39:00 AM 40.0245 93.9681 311° West  Level Estimated
Thu 03:40:00 AM 40.0850 93.8768 311° West  Level Estimated
Thu 03:41:00 AM 40.1455 93.7853 311° West  Level Estimated
Thu 03:42:00 AM 40.2059 93.6937 311° West  Level Estimated
Thu 03:43:00 AM 40.2663 93.6020 311° West  Level Estimated
Thu 03:44:00 AM 40.3265 93.5100 311° West  Level Estimated
Thu 03:45:00 AM 40.3867 93.4179 311° West  Level Estimated
Thu 03:46:00 AM 40.4468 93.3256 311° West  Level Estimated
Thu 03:47:00 AM 40.5069 93.2332 311° West  Level Estimated
Thu 03:48:00 AM 40.5669 93.1406 310° West  Level Estimated
Thu 03:49:00 AM 40.6268 93.0478 310° West  Level Estimated
Thu 03:50:00 AM 40.6866 92.9549 310° West  Level Estimated
Thu 03:51:00 AM 40.7463 92.8618 310° West  Level Estimated
Thu 03:52:00 AM 40.8060 92.7685 310° West  Level Estimated
Thu 03:53:00 AM 40.8656 92.6751 310° West  Level Estimated
Thu 03:54:00 AM 40.9251 92.5815 310° West  Level Estimated
Thu 03:55:00 AM 40.9846 92.4877 310° West  Level Estimated
Thu 03:56:00 AM 41.0439 92.3938 310° West  Level Estimated
Thu 03:57:00 AM 41.1032 92.2996 310° West  Level Estimated
Thu 03:58:00 AM 41.1625 92.2054 310° West  Level Estimated
Thu 03:59:00 AM 41.2216 92.1109 310° West  Level Estimated
Thu 04:00:00 AM 41.2807 92.0163 310° West  Level Estimated
Thu 04:01:00 AM 41.3397 91.9215 310° West  Level Estimated
Thu 04:02:00 AM 41.3986 91.8265 310° West  Level Estimated
Thu 04:03:00 AM 41.4574 91.7314 310° West  Level Estimated
Thu 04:04:00 AM 41.5162 91.6361 309° West  Level Estimated
Thu 04:05:00 AM 41.5748 91.5406 309° West  Level Estimated
Thu 04:06:00 AM 41.6334 91.4449 309° West  Level Estimated
Thu 04:07:00 AM 41.6919 91.3491 309° West  Level Estimated
Thu 04:08:00 AM 41.7504 91.2531 309° West  Level Estimated
Thu 04:09:00 AM 41.8087 91.1569 309° West  Level Estimated
Thu 04:10:00 AM 41.8670 91.0605 309° West  Level Estimated
Thu 04:11:00 AM 41.9252 90.9640 309° West  Level Estimated
Thu 04:12:00 AM 41.9833 90.8673 309° West  Level Estimated
Thu 04:13:00 AM 42.0414 90.7704 309° West  Level Estimated
Thu 04:14:00 AM 42.0993 90.6733 309° West  Level Estimated
Thu 04:15:00 AM 42.1572 90.5761 309° West  Level Estimated
Thu 04:16:00 AM 42.2150 90.4787 309° West  Level Estimated
Thu 04:17:00 AM 42.2727 90.3811 309° West  Level Estimated
Thu 04:18:00 AM 42.3303 90.2833 309° West  Level Estimated
Thu 04:19:00 AM 42.3878 90.1854 309° West  Level Estimated
Thu 04:20:00 AM 42.4453 90.0872 308° West  Level Estimated
Thu 04:21:00 AM 42.5026 89.9889 308° West  Level Estimated
Thu 04:22:00 AM 42.5599 89.8904 308° West  Level Estimated
Thu 04:23:00 AM 42.6171 89.7917 308° West  Level Estimated
Thu 04:24:00 AM 42.6742 89.6929 308° West  Level Estimated
Thu 04:25:00 AM 42.7313 89.5938 308° West  Level Estimated
Thu 04:26:00 AM 42.7882 89.4946 308° West  Level Estimated
Thu 04:27:00 AM 42.8451 89.3952 308° West  Level Estimated
Thu 04:28:00 AM 42.9019 89.2956 308° West  Level Estimated
Thu 04:29:00 AM 42.9585 89.1959 308° West  Level Estimated
Thu 04:30:00 AM 43.0151 89.0959 308° West  Level Estimated
Thu 04:31:00 AM 43.0717 88.9958 308° West  Level Estimated
Thu 04:32:00 AM 43.1281 88.8954 308° West  Level Estimated
Thu 04:33:00 AM 43.1844 88.7949 308° West  Level Estimated
Thu 04:34:00 AM 43.2407 88.6943 308° West  Level Estimated
Thu 04:35:00 AM 43.2968 88.5934 307° West  Level Estimated
Thu 04:36:00 AM 43.3529 88.4923 307° West  Level Estimated
Thu 04:37:00 AM 43.4089 88.3911 307° West  Level Estimated
Thu 04:38:00 AM 43.4648 88.2896 307° West  Level Estimated
Thu 04:39:00 AM 43.5206 88.1880 307° West  Level Estimated
Thu 04:40:00 AM 43.5763 88.0862 307° West  Level Estimated
Thu 04:41:00 AM 43.6319 87.9842 307° West  Level Estimated
Thu 04:42:00 AM 43.6875 87.8820 307° West  Level Estimated
Thu 04:43:00 AM 43.7429 87.7796 307° West  Level Estimated
Thu 04:44:00 AM 43.7982 87.6770 307° West  Level Estimated
Thu 04:45:00 AM 43.8535 87.5743 307° West  Level Estimated
Thu 04:46:00 AM 43.9071 87.4742 307° West  Level Estimated
Thu 04:47:00 AM 43.9071 87.4742 North  Level Estimated
Thu 04:48:00 AM 43.9071 87.4742 North  Level Estimated
Thu 04:49:00 AM 43.9071 87.4742 North  Level Estimated
Thu 04:50:00 AM 43.9071 87.4742 North  Level Estimated
Thu 04:51:00 AM 43.9071 87.4742 North  Level Estimated
Thu 04:52:00 AM 43.9071 87.4742 North  Level Estimated
Thu 04:53:00 AM 43.9071 87.4742 North  Level Estimated
Thu 04:54:00 AM 43.9071 87.4742 North  Level Estimated
Thu 04:55:00 AM 43.9071 87.4742 North  Level Estimated
Thu 04:56:00 AM 43.9071 87.4742 North  Level Estimated
Thu 04:57:00 AM 43.9071 87.4742 North  Level Estimated
Thu 04:58:00 AM 43.9071 87.4742 North  Level Estimated
Thu 04:59:00 AM 43.9071 87.4742 North  Level Estimated
Thu 05:00:00 AM 43.9071 87.4742 North  Level Estimated
Thu 05:01:00 AM 43.9071 87.4742 North  Level Estimated
Thu 05:02:00 AM 43.9071 87.4742 North  Level Estimated

Login

Don't have an account? Register now (free) for customized features, flight alerts, and more!